Strona główna
METAR-TAF:

METAR-TAF

Lotnisko :

Port lotniczy Kudat

Kudat, Malezja

Szerokość geograficzna: 06-55N, Długość geograficzna: 116-50E, wysokość: 3 m

Aktualna obserwacja pogody

Raport powstał 1 godzina i 14 minut temu, godzina 10:00 UTC
Wiatr 5 kt od zachód, zmienny między południowo-południowy zachód i zachodnio-północny zachód
Temperatura 29°C
Wilgotność 79%
Ciśnienie 1008 hPa
Widzialność 10 km lub więcej
Mało chmury na wysokości 1500 ft
Rozproszone chmury na wysokości 14000 ft
Przerywane chmury na wysokości 27000 ft

METAR: WBKT 241000Z 26005KT 210V300 9999 FEW015 SCT140 BKN270 29/25 Q1008

czas: 19:14 (11:14 UTC)


TAF: brakujący

Obserwacja i prognoza pogody dla ponad 4000 lotnisk (raport METAR i TAF).

Dostępne stacje oznaczono żółtymi i czerwonymi punktami na mapie.

Najedź kursorem aby zobaczyć nazwę stacji.

Kliknij aby zobaczyć obserwacje i prognozy pogody.

Aby zmienić mapę: kliknij na zielony przycisk z czarnym krzyżykiem, aby powiększyć; na zielony przycisk z myślnikiem, aby pomniejszyć; na zielone strzałki, aby przejść do map sąsiednich.


METAR-TAF: